sensor_id;sensor_type;location;lat;lon;timestamp;temperature;humidity
74224;SHT31;62585;49.706;18.216;2024-01-10T00:01:34;-13.87;70.13
74224;SHT31;62585;49.706;18.216;2024-01-10T00:04:00;-13.75;69.48
74224;SHT31;62585;49.706;18.216;2024-01-10T00:06:26;-13.81;68.37
74224;SHT31;62585;49.706;18.216;2024-01-10T00:08:51;-14.09;68.64
74224;SHT31;62585;49.706;18.216;2024-01-10T00:11:17;-14.09;69.28
74224;SHT31;62585;49.706;18.216;2024-01-10T00:13:43;-14.12;69.21
74224;SHT31;62585;49.706;18.216;2024-01-10T00:16:12;-14.17;68.85
74224;SHT31;62585;49.706;18.216;2024-01-10T00:18:39;-14.11;68.32
74224;SHT31;62585;49.706;18.216;2024-01-10T00:21:06;-14.09;69.03
74224;SHT31;62585;49.706;18.216;2024-01-10T00:23:32;-13.71;68.08
74224;SHT31;62585;49.706;18.216;2024-01-10T00:25:58;-13.85;67.65
74224;SHT31;62585;49.706;18.216;2024-01-10T00:28:24;-13.67;67.28
74224;SHT31;62585;49.706;18.216;2024-01-10T00:30:50;-13.82;67.14
74224;SHT31;62585;49.706;18.216;2024-01-10T00:33:16;-13.87;67.20
74224;SHT31;62585;49.706;18.216;2024-01-10T00:35:42;-13.94;67.52
74224;SHT31;62585;49.706;18.216;2024-01-10T00:38:08;-13.95;67.91
74224;SHT31;62585;49.706;18.216;2024-01-10T00:40:34;-14.08;68.61
74224;SHT31;62585;49.706;18.216;2024-01-10T00:43:01;-13.91;68.04
74224;SHT31;62585;49.706;18.216;2024-01-10T00:45:27;-13.92;67.79
74224;SHT31;62585;49.706;18.216;2024-01-10T00:47:52;-13.91;68.11
74224;SHT31;62585;49.706;18.216;2024-01-10T00:50:18;-13.92;68.18
74224;SHT31;62585;49.706;18.216;2024-01-10T00:52:45;-14.05;68.76
74224;SHT31;62585;49.706;18.216;2024-01-10T00:55:11;-14.04;69.16
74224;SHT31;62585;49.706;18.216;2024-01-10T00:57:36;-14.08;69.59
74224;SHT31;62585;49.706;18.216;2024-01-10T01:00:08;-13.97;69.71
74224;SHT31;62585;49.706;18.216;2024-01-10T01:02:35;-13.94;69.25
74224;SHT31;62585;49.706;18.216;2024-01-10T01:05:02;-14.14;69.28
74224;SHT31;62585;49.706;18.216;2024-01-10T01:07:28;-14.19;70.61
74224;SHT31;62585;49.706;18.216;2024-01-10T01:09:54;-14.32;70.82
74224;SHT31;62585;49.706;18.216;2024-01-10T01:12:19;-14.21;70.70
74224;SHT31;62585;49.706;18.216;2024-01-10T01:14:45;-14.11;70.12
74224;SHT31;62585;49.706;18.216;2024-01-10T01:17:11;-13.90;69.71
74224;SHT31;62585;49.706;18.216;2024-01-10T01:19:37;-14.02;69.21
74224;SHT31;62585;49.706;18.216;2024-01-10T01:22:03;-13.95;69.00
74224;SHT31;62585;49.706;18.216;2024-01-10T01:24:28;-13.88;68.73
74224;SHT31;62585;49.706;18.216;2024-01-10T01:26:54;-13.75;68.17
74224;SHT31;62585;49.706;18.216;2024-01-10T01:29:20;-14.17;67.94
74224;SHT31;62585;49.706;18.216;2024-01-10T01:31:46;-14.29;69.50
74224;SHT31;62585;49.706;18.216;2024-01-10T01:34:12;-14.19;69.44
74224;SHT31;62585;49.706;18.216;2024-01-10T01:36:38;-14.09;69.39
74224;SHT31;62585;49.706;18.216;2024-01-10T01:39:03;-13.97;69.47
74224;SHT31;62585;49.706;18.216;2024-01-10T01:41:29;-13.91;69.34
74224;SHT31;62585;49.706;18.216;2024-01-10T01:43:55;-14.02;70.44
74224;SHT31;62585;49.706;18.216;2024-01-10T01:46:21;-13.95;70.17
74224;SHT31;62585;49.706;18.216;2024-01-10T01:48:48;-14.05;69.49
74224;SHT31;62585;49.706;18.216;2024-01-10T01:51:15;-13.84;69.35
74224;SHT31;62585;49.706;18.216;2024-01-10T01:53:44;-13.98;69.16
74224;SHT31;62585;49.706;18.216;2024-01-10T01:56:10;-13.80;68.65
74224;SHT31;62585;49.706;18.216;2024-01-10T01:58:37;-13.91;67.89
74224;SHT31;62585;49.706;18.216;2024-01-10T02:01:03;-13.88;68.47
74224;SHT31;62585;49.706;18.216;2024-01-10T02:03:31;-13.78;68.43
74224;SHT31;62585;49.706;18.216;2024-01-10T02:05:59;-13.95;68.60
74224;SHT31;62585;49.706;18.216;2024-01-10T02:08:25;-14.33;68.42
74224;SHT31;62585;49.706;18.216;2024-01-10T02:13:26;-14.61;69.06
74224;SHT31;62585;49.706;18.216;2024-01-10T02:15:52;-14.59;69.25
74224;SHT31;62585;49.706;18.216;2024-01-10T02:18:17;-14.85;69.54
74224;SHT31;62585;49.706;18.216;2024-01-10T02:20:44;-14.64;68.86
74224;SHT31;62585;49.706;18.216;2024-01-10T02:23:13;-14.30;68.04
74224;SHT31;62585;49.706;18.216;2024-01-10T02:25:40;-14.26;67.46
74224;SHT31;62585;49.706;18.216;2024-01-10T02:28:06;-14.46;68.02
74224;SHT31;62585;49.706;18.216;2024-01-10T02:30:33;-14.45;68.58
74224;SHT31;62585;49.706;18.216;2024-01-10T02:32:59;-14.30;68.53
74224;SHT31;62585;49.706;18.216;2024-01-10T02:35:24;-14.15;68.69
74224;SHT31;62585;49.706;18.216;2024-01-10T02:37:52;-14.11;68.15
74224;SHT31;62585;49.706;18.216;2024-01-10T02:40:18;-14.19;68.07
74224;SHT31;62585;49.706;18.216;2024-01-10T02:42:44;-13.95;67.83
74224;SHT31;62585;49.706;18.216;2024-01-10T02:45:10;-13.94;67.39
74224;SHT31;62585;49.706;18.216;2024-01-10T02:47:35;-14.14;68.38
74224;SHT31;62585;49.706;18.216;2024-01-10T02:50:03;-14.08;68.62
74224;SHT31;62585;49.706;18.216;2024-01-10T02:52:30;-14.29;68.03
74224;SHT31;62585;49.706;18.216;2024-01-10T02:54:56;-14.30;68.29
74224;SHT31;62585;49.706;18.216;2024-01-10T02:57:21;-14.43;68.99
74224;SHT31;62585;49.706;18.216;2024-01-10T02:59:47;-14.46;70.20
74224;SHT31;62585;49.706;18.216;2024-01-10T03:02:13;-14.42;70.42
74224;SHT31;62585;49.706;18.216;2024-01-10T03:04:40;-14.32;70.11
74224;SHT31;62585;49.706;18.216;2024-01-10T03:07:06;-14.26;69.28
74224;SHT31;62585;49.706;18.216;2024-01-10T03:09:31;-14.39;69.13
74224;SHT31;62585;49.706;18.216;2024-01-10T03:11:57;-14.63;69.66
74224;SHT31;62585;49.706;18.216;2024-01-10T03:14:23;-14.70;70.58
74224;SHT31;62585;49.706;18.216;2024-01-10T03:16:49;-14.77;70.95
74224;SHT31;62585;49.706;18.216;2024-01-10T03:19:15;-14.70;71.52
74224;SHT31;62585;49.706;18.216;2024-01-10T03:21:40;-14.60;71.08
74224;SHT31;62585;49.706;18.216;2024-01-10T03:24:07;-14.68;70.52
74224;SHT31;62585;49.706;18.216;2024-01-10T03:26:33;-14.38;70.25
74224;SHT31;62585;49.706;18.216;2024-01-10T03:28:59;-14.40;69.85
74224;SHT31;62585;49.706;18.216;2024-01-10T03:31:24;-14.48;70.55
74224;SHT31;62585;49.706;18.216;2024-01-10T03:33:50;-14.32;70.88
74224;SHT31;62585;49.706;18.216;2024-01-10T03:36:17;-14.29;70.70
74224;SHT31;62585;49.706;18.216;2024-01-10T03:38:43;-14.17;70.66
74224;SHT31;62585;49.706;18.216;2024-01-10T03:41:19;-14.08;69.75
74224;SHT31;62585;49.706;18.216;2024-01-10T03:43:45;-14.05;69.23
74224;SHT31;62585;49.706;18.216;2024-01-10T03:46:12;-14.17;69.42
74224;SHT31;62585;49.706;18.216;2024-01-10T03:48:38;-14.09;69.26
74224;SHT31;62585;49.706;18.216;2024-01-10T03:51:12;-14.17;69.08
74224;SHT31;62585;49.706;18.216;2024-01-10T03:53:38;-14.11;69.58
74224;SHT31;62585;49.706;18.216;2024-01-10T03:56:05;-14.11;69.49
74224;SHT31;62585;49.706;18.216;2024-01-10T03:58:31;-14.05;69.42
74224;SHT31;62585;49.706;18.216;2024-01-10T04:00:56;-14.07;69.23
74224;SHT31;62585;49.706;18.216;2024-01-10T04:03:22;-14.09;69.45
74224;SHT31;62585;49.706;18.216;2024-01-10T04:05:48;-13.98;69.12
74224;SHT31;62585;49.706;18.216;2024-01-10T04:08:13;-13.98;68.98
74224;SHT31;62585;49.706;18.216;2024-01-10T04:10:39;-14.14;69.49
74224;SHT31;62585;49.706;18.216;2024-01-10T04:13:05;-14.04;70.14
74224;SHT31;62585;49.706;18.216;2024-01-10T04:15:30;-13.85;69.49
74224;SHT31;62585;49.706;18.216;2024-01-10T04:17:56;-14.08;69.72
74224;SHT31;62585;49.706;18.216;2024-01-10T04:20:22;-14.50;68.98
74224;SHT31;62585;49.706;18.216;2024-01-10T04:22:48;-14.43;69.09
74224;SHT31;62585;49.706;18.216;2024-01-10T04:25:13;-14.36;68.98
74224;SHT31;62585;49.706;18.216;2024-01-10T04:27:39;-14.39;69.13
74224;SHT31;62585;49.706;18.216;2024-01-10T04:30:05;-14.22;68.69
74224;SHT31;62585;49.706;18.216;2024-01-10T04:32:31;-13.88;68.79
74224;SHT31;62585;49.706;18.216;2024-01-10T04:34:57;-13.66;68.14
74224;SHT31;62585;49.706;18.216;2024-01-10T04:37:23;-13.50;67.62
74224;SHT31;62585;49.706;18.216;2024-01-10T04:39:48;-13.75;67.02
74224;SHT31;62585;49.706;18.216;2024-01-10T04:42:15;-13.98;67.11
74224;SHT31;62585;49.706;18.216;2024-01-10T04:44:40;-13.95;67.42
74224;SHT31;62585;49.706;18.216;2024-01-10T04:47:07;-13.97;67.07
74224;SHT31;62585;49.706;18.216;2024-01-10T04:49:33;-13.98;67.22
74224;SHT31;62585;49.706;18.216;2024-01-10T04:51:58;-13.90;67.28
74224;SHT31;62585;49.706;18.216;2024-01-10T04:54:24;-14.18;67.49
74224;SHT31;62585;49.706;18.216;2024-01-10T04:56:50;-14.45;68.23
74224;SHT31;62585;49.706;18.216;2024-01-10T04:59:15;-14.42;68.68
74224;SHT31;62585;49.706;18.216;2024-01-10T05:01:41;-14.59;69.09
74224;SHT31;62585;49.706;18.216;2024-01-10T05:04:07;-14.59;69.85
74224;SHT31;62585;49.706;18.216;2024-01-10T05:06:33;-14.53;69.45
74224;SHT31;62585;49.706;18.216;2024-01-10T05:08:58;-14.52;69.63
74224;SHT31;62585;49.706;18.216;2024-01-10T05:11:25;-14.40;69.07
74224;SHT31;62585;49.706;18.216;2024-01-10T05:13:54;-14.35;68.48
74224;SHT31;62585;49.706;18.216;2024-01-10T05:16:19;-14.63;69.54
74224;SHT31;62585;49.706;18.216;2024-01-10T05:18:45;-14.43;70.15
74224;SHT31;62585;49.706;18.216;2024-01-10T05:21:12;-14.35;69.27
74224;SHT31;62585;49.706;18.216;2024-01-10T05:23:37;-14.33;68.92
74224;SHT31;62585;49.706;18.216;2024-01-10T05:26:05;-14.42;70.25
74224;SHT31;62585;49.706;18.216;2024-01-10T05:28:30;-14.52;70.50
74224;SHT31;62585;49.706;18.216;2024-01-10T05:30:57;-14.85;71.49
74224;SHT31;62585;49.706;18.216;2024-01-10T05:33:23;-14.66;71.78
74224;SHT31;62585;49.706;18.216;2024-01-10T05:35:49;-14.55;71.06
74224;SHT31;62585;49.706;18.216;2024-01-10T05:38:15;-14.55;70.45
74224;SHT31;62585;49.706;18.216;2024-01-10T05:40:41;-14.61;70.37
74224;SHT31;62585;49.706;18.216;2024-01-10T05:43:07;-14.97;71.50
74224;SHT31;62585;49.706;18.216;2024-01-10T05:45:33;-14.77;71.17
74224;SHT31;62585;49.706;18.216;2024-01-10T05:47:59;-14.77;71.11
74224;SHT31;62585;49.706;18.216;2024-01-10T05:50:25;-14.78;72.11
74224;SHT31;62585;49.706;18.216;2024-01-10T05:52:50;-14.45;71.94
74224;SHT31;62585;49.706;18.216;2024-01-10T05:55:16;-14.32;70.70
74224;SHT31;62585;49.706;18.216;2024-01-10T05:57:42;-14.25;70.35
74224;SHT31;62585;49.706;18.216;2024-01-10T06:00:08;-14.17;69.99
74224;SHT31;62585;49.706;18.216;2024-01-10T06:02:44;-14.36;70.11
74224;SHT31;62585;49.706;18.216;2024-01-10T06:05:10;-14.42;69.91
74224;SHT31;62585;49.706;18.216;2024-01-10T06:07:37;-14.15;68.64
74224;SHT31;62585;49.706;18.216;2024-01-10T06:10:03;-14.32;68.03
74224;SHT31;62585;49.706;18.216;2024-01-10T06:12:29;-14.24;68.32
74224;SHT31;62585;49.706;18.216;2024-01-10T06:14:55;-14.29;68.95
74224;SHT31;62585;49.706;18.216;2024-01-10T06:17:21;-14.26;68.73
74224;SHT31;62585;49.706;18.216;2024-01-10T06:19:47;-14.29;68.89
74224;SHT31;62585;49.706;18.216;2024-01-10T06:22:13;-14.15;68.47
74224;SHT31;62585;49.706;18.216;2024-01-10T06:24:39;-14.26;68.29
74224;SHT31;62585;49.706;18.216;2024-01-10T06:27:06;-14.50;68.70
74224;SHT31;62585;49.706;18.216;2024-01-10T06:29:32;-14.70;69.70
74224;SHT31;62585;49.706;18.216;2024-01-10T06:31:59;-14.68;70.29
74224;SHT31;62585;49.706;18.216;2024-01-10T06:34:27;-14.60;70.91
74224;SHT31;62585;49.706;18.216;2024-01-10T06:36:53;-14.52;70.48
74224;SHT31;62585;49.706;18.216;2024-01-10T06:39:19;-14.40;70.42
74224;SHT31;62585;49.706;18.216;2024-01-10T06:41:48;-14.33;69.92
74224;SHT31;62585;49.706;18.216;2024-01-10T06:44:15;-14.40;69.76
74224;SHT31;62585;49.706;18.216;2024-01-10T06:46:43;-14.42;70.43
74224;SHT31;62585;49.706;18.216;2024-01-10T06:49:10;-14.25;70.47
74224;SHT31;62585;49.706;18.216;2024-01-10T06:51:35;-14.12;70.21
74224;SHT31;62585;49.706;18.216;2024-01-10T06:54:01;-14.25;70.18
74224;SHT31;62585;49.706;18.216;2024-01-10T06:56:33;-14.45;71.07
74224;SHT31;62585;49.706;18.216;2024-01-10T06:58:59;-14.18;71.52
74224;SHT31;62585;49.706;18.216;2024-01-10T07:01:26;-14.12;71.04
74224;SHT31;62585;49.706;18.216;2024-01-10T07:03:52;-14.22;70.79
74224;SHT31;62585;49.706;18.216;2024-01-10T07:06:18;-14.22;70.57
74224;SHT31;62585;49.706;18.216;2024-01-10T07:08:44;-14.48;71.07
74224;SHT31;62585;49.706;18.216;2024-01-10T07:13:51;-14.14;71.07
74224;SHT31;62585;49.706;18.216;2024-01-10T07:16:17;-14.11;70.80
74224;SHT31;62585;49.706;18.216;2024-01-10T07:18:44;-14.04;71.41
74224;SHT31;62585;49.706;18.216;2024-01-10T07:21:11;-13.95;71.83
74224;SHT31;62585;49.706;18.216;2024-01-10T07:23:36;-13.78;71.54
74224;SHT31;62585;49.706;18.216;2024-01-10T07:26:06;-13.66;70.86
74224;SHT31;62585;49.706;18.216;2024-01-10T07:28:32;-13.32;70.73
74224;SHT31;62585;49.706;18.216;2024-01-10T07:30:58;-13.32;70.72
74224;SHT31;62585;49.706;18.216;2024-01-10T07:33:27;-13.28;70.92
74224;SHT31;62585;49.706;18.216;2024-01-10T07:35:53;-13.35;71.98
74224;SHT31;62585;49.706;18.216;2024-01-10T07:38:20;-13.10;72.40
74224;SHT31;62585;49.706;18.216;2024-01-10T07:40:46;-12.91;72.00
74224;SHT31;62585;49.706;18.216;2024-01-10T07:43:12;-12.76;71.56
74224;SHT31;62585;49.706;18.216;2024-01-10T07:45:38;-12.54;71.35
74224;SHT31;62585;49.706;18.216;2024-01-10T07:48:04;-12.41;71.43
74224;SHT31;62585;49.706;18.216;2024-01-10T07:50:30;-12.25;71.63
74224;SHT31;62585;49.706;18.216;2024-01-10T07:52:56;-11.77;70.45
74224;SHT31;62585;49.706;18.216;2024-01-10T07:55:22;-11.21;69.20
74224;SHT31;62585;49.706;18.216;2024-01-10T07:57:47;-10.49;67.62
74224;SHT31;62585;49.706;18.216;2024-01-10T08:00:13;-10.15;64.92
74224;SHT31;62585;49.706;18.216;2024-01-10T08:02:40;-9.40;64.17
74224;SHT31;62585;49.706;18.216;2024-01-10T08:05:07;-9.18;62.59
74224;SHT31;62585;49.706;18.216;2024-01-10T08:07:38;-8.61;62.13
74224;SHT31;62585;49.706;18.216;2024-01-10T08:10:08;-8.22;60.28
74224;SHT31;62585;49.706;18.216;2024-01-10T08:12:36;-7.98;60.18
74224;SHT31;62585;49.706;18.216;2024-01-10T08:15:02;-7.36;59.08
74224;SHT31;62585;49.706;18.216;2024-01-10T08:17:27;-7.08;57.86
74224;SHT31;62585;49.706;18.216;2024-01-10T08:19:53;-6.29;56.53
74224;SHT31;62585;49.706;18.216;2024-01-10T08:22:20;-5.98;56.39
74224;SHT31;62585;49.706;18.216;2024-01-10T08:24:46;-6.02;57.20
74224;SHT31;62585;49.706;18.216;2024-01-10T08:27:12;-5.83;58.09
74224;SHT31;62585;49.706;18.216;2024-01-10T08:29:38;-5.16;55.96
74224;SHT31;62585;49.706;18.216;2024-01-10T08:32:04;-5.25;52.78
74224;SHT31;62585;49.706;18.216;2024-01-10T08:34:30;-5.94;55.07
74224;SHT31;62585;49.706;18.216;2024-01-10T08:36:56;-6.26;56.82
74224;SHT31;62585;49.706;18.216;2024-01-10T08:39:22;-6.44;58.56
74224;SHT31;62585;49.706;18.216;2024-01-10T08:41:50;-6.76;59.04
74224;SHT31;62585;49.706;18.216;2024-01-10T08:44:16;-6.85;60.18
74224;SHT31;62585;49.706;18.216;2024-01-10T08:46:41;-6.29;59.01
74224;SHT31;62585;49.706;18.216;2024-01-10T08:49:07;-6.42;59.26
74224;SHT31;62585;49.706;18.216;2024-01-10T08:51:33;-6.28;58.97
74224;SHT31;62585;49.706;18.216;2024-01-10T08:54:00;-6.40;59.48
74224;SHT31;62585;49.706;18.216;2024-01-10T08:56:25;-6.05;59.16
74224;SHT31;62585;49.706;18.216;2024-01-10T08:58:52;-6.21;58.51
74224;SHT31;62585;49.706;18.216;2024-01-10T09:01:18;-6.06;59.52
74224;SHT31;62585;49.706;18.216;2024-01-10T09:03:45;-5.74;60.49
74224;SHT31;62585;49.706;18.216;2024-01-10T09:06:11;-5.29;58.46
74224;SHT31;62585;49.706;18.216;2024-01-10T09:08:37;-5.01;57.82
74224;SHT31;62585;49.706;18.216;2024-01-10T09:11:03;-5.44;58.43
74224;SHT31;62585;49.706;18.216;2024-01-10T09:13:29;-5.66;58.64
74224;SHT31;62585;49.706;18.216;2024-01-10T09:15:54;-5.71;60.68
74224;SHT31;62585;49.706;18.216;2024-01-10T09:18:21;-5.69;60.49
74224;SHT31;62585;49.706;18.216;2024-01-10T09:20:46;-5.46;59.76
74224;SHT31;62585;49.706;18.216;2024-01-10T09:23:13;-5.26;59.03
74224;SHT31;62585;49.706;18.216;2024-01-10T09:25:39;-5.52;59.39
74224;SHT31;62585;49.706;18.216;2024-01-10T09:28:05;-5.44;59.82
74224;SHT31;62585;49.706;18.216;2024-01-10T09:30:31;-5.35;60.75
74224;SHT31;62585;49.706;18.216;2024-01-10T09:32:57;-5.26;60.55
74224;SHT31;62585;49.706;18.216;2024-01-10T09:35:24;-5.09;60.10
74224;SHT31;62585;49.706;18.216;2024-01-10T09:37:50;-5.46;61.96
74224;SHT31;62585;49.706;18.216;2024-01-10T09:40:16;-5.47;61.21
74224;SHT31;62585;49.706;18.216;2024-01-10T09:42:48;-5.32;61.47
74224;SHT31;62585;49.706;18.216;2024-01-10T09:45:15;-5.27;60.40
74224;SHT31;62585;49.706;18.216;2024-01-10T09:47:46;-4.80;60.78
74224;SHT31;62585;49.706;18.216;2024-01-10T09:50:13;-4.91;59.56
74224;SHT31;62585;49.706;18.216;2024-01-10T09:52:51;-4.94;59.67
74224;SHT31;62585;49.706;18.216;2024-01-10T09:55:21;-5.27;60.56
74224;SHT31;62585;49.706;18.216;2024-01-10T09:57:47;-5.04;60.44
74224;SHT31;62585;49.706;18.216;2024-01-10T10:00:15;-4.98;61.16
74224;SHT31;62585;49.706;18.216;2024-01-10T10:02:41;-4.92;61.74
74224;SHT31;62585;49.706;18.216;2024-01-10T10:05:15;-4.59;61.42
74224;SHT31;62585;49.706;18.216;2024-01-10T10:07:49;-4.37;61.30
74224;SHT31;62585;49.706;18.216;2024-01-10T10:10:16;-3.99;60.65
74224;SHT31;62585;49.706;18.216;2024-01-10T10:12:47;-3.81;59.76
74224;SHT31;62585;49.706;18.216;2024-01-10T10:15:17;-3.81;59.91
74224;SHT31;62585;49.706;18.216;2024-01-10T10:17:46;-3.59;59.93
74224;SHT31;62585;49.706;18.216;2024-01-10T10:20:22;-3.57;59.64
74224;SHT31;62585;49.706;18.216;2024-01-10T10:23:04;-3.36;59.68
74224;SHT31;62585;49.706;18.216;2024-01-10T10:25:32;-3.19;59.09
74224;SHT31;62585;49.706;18.216;2024-01-10T10:27:59;-2.98;58.70
74224;SHT31;62585;49.706;18.216;2024-01-10T10:30:30;-2.99;58.66
74224;SHT31;62585;49.706;18.216;2024-01-10T10:32:56;-3.08;59.08
74224;SHT31;62585;49.706;18.216;2024-01-10T10:35:22;-3.05;59.29
74224;SHT31;62585;49.706;18.216;2024-01-10T10:37:49;-3.20;57.41
74224;SHT31;62585;49.706;18.216;2024-01-10T10:40:16;-3.28;59.33
74224;SHT31;62585;49.706;18.216;2024-01-10T10:42:49;-3.88;60.42
74224;SHT31;62585;49.706;18.216;2024-01-10T10:45:18;-3.74;60.89
74224;SHT31;62585;49.706;18.216;2024-01-10T10:47:46;-3.56;61.16
74224;SHT31;62585;49.706;18.216;2024-01-10T10:50:24;-3.05;60.99
74224;SHT31;62585;49.706;18.216;2024-01-10T10:52:51;-2.65;60.16
74224;SHT31;62585;49.706;18.216;2024-01-10T10:55:20;-2.21;58.95
74224;SHT31;62585;49.706;18.216;2024-01-10T10:57:48;-1.64;58.11
74224;SHT31;62585;49.706;18.216;2024-01-10T11:00:19;-1.10;56.60
74224;SHT31;62585;49.706;18.216;2024-01-10T11:02:46;-0.78;55.16
74224;SHT31;62585;49.706;18.216;2024-01-10T11:05:12;-1.17;56.25
74224;SHT31;62585;49.706;18.216;2024-01-10T11:07:43;-1.35;54.19
74224;SHT31;62585;49.706;18.216;2024-01-10T11:10:14;-1.63;56.61
74224;SHT31;62585;49.706;18.216;2024-01-10T11:12:56;-1.35;56.46
74224;SHT31;62585;49.706;18.216;2024-01-10T11:18:32;-0.87;54.96
74224;SHT31;62585;49.706;18.216;2024-01-10T11:23:39;0.05;54.39
74224;SHT31;62585;49.706;18.216;2024-01-10T11:26:07;0.08;52.84
74224;SHT31;62585;49.706;18.216;2024-01-10T11:28:33;0.15;50.85
74224;SHT31;62585;49.706;18.216;2024-01-10T11:31:01;0.56;49.97
74224;SHT31;62585;49.706;18.216;2024-01-10T11:33:40;0.70;50.86
74224;SHT31;62585;49.706;18.216;2024-01-10T11:36:17;1.01;49.13
74224;SHT31;62585;49.706;18.216;2024-01-10T11:39:00;1.24;50.79
74224;SHT31;62585;49.706;18.216;2024-01-10T11:41:38;1.50;50.37
74224;SHT31;62585;49.706;18.216;2024-01-10T11:46:41;1.97;47.80
74224;SHT31;62585;49.706;18.216;2024-01-10T11:49:11;2.79;48.03
74224;SHT31;62585;49.706;18.216;2024-01-10T11:51:40;3.24;45.80
74224;SHT31;62585;49.706;18.216;2024-01-10T11:54:07;3.54;46.55
74224;SHT31;62585;49.706;18.216;2024-01-10T11:56:40;3.43;47.23
74224;SHT31;62585;49.706;18.216;2024-01-10T12:01:36;4.56;43.79
74224;SHT31;62585;49.706;18.216;2024-01-10T12:04:02;4.16;44.83
74224;SHT31;62585;49.706;18.216;2024-01-10T12:06:29;4.83;42.94
74224;SHT31;62585;49.706;18.216;2024-01-10T12:08:55;4.92;43.04
74224;SHT31;62585;49.706;18.216;2024-01-10T12:11:21;4.55;43.27
74224;SHT31;62585;49.706;18.216;2024-01-10T12:13:47;4.47;43.48
74224;SHT31;62585;49.706;18.216;2024-01-10T12:16:13;5.06;43.51
74224;SHT31;62585;49.706;18.216;2024-01-10T12:18:40;5.61;41.50
74224;SHT31;62585;49.706;18.216;2024-01-10T12:21:06;5.68;41.98
74224;SHT31;62585;49.706;18.216;2024-01-10T12:23:37;4.76;41.79
74224;SHT31;62585;49.706;18.216;2024-01-10T12:26:06;5.63;42.10
74224;SHT31;62585;49.706;18.216;2024-01-10T12:28:34;6.55;40.05
74224;SHT31;62585;49.706;18.216;2024-01-10T12:30:59;6.23;39.28
74224;SHT31;62585;49.706;18.216;2024-01-10T12:33:25;6.65;38.74
74224;SHT31;62585;49.706;18.216;2024-01-10T12:36:08;7.23;37.93
74224;SHT31;62585;49.706;18.216;2024-01-10T12:38:39;7.38;37.76
74224;SHT31;62585;49.706;18.216;2024-01-10T12:41:05;6.81;39.27
74224;SHT31;62585;49.706;18.216;2024-01-10T12:43:35;5.33;40.84
74224;SHT31;62585;49.706;18.216;2024-01-10T12:46:05;5.13;40.91
74224;SHT31;62585;49.706;18.216;2024-01-10T12:48:31;5.06;41.35
74224;SHT31;62585;49.706;18.216;2024-01-10T12:50:59;5.24;40.90
74224;SHT31;62585;49.706;18.216;2024-01-10T12:53:34;4.52;41.83
74224;SHT31;62585;49.706;18.216;2024-01-10T12:56:00;4.13;44.81
74224;SHT31;62585;49.706;18.216;2024-01-10T12:58:27;4.17;44.29
74224;SHT31;62585;49.706;18.216;2024-01-10T13:00:53;3.89;45.78
74224;SHT31;62585;49.706;18.216;2024-01-10T13:03:19;3.63;46.43
74224;SHT31;62585;49.706;18.216;2024-01-10T13:05:44;3.22;47.43
74224;SHT31;62585;49.706;18.216;2024-01-10T13:08:11;3.21;48.72
74224;SHT31;62585;49.706;18.216;2024-01-10T13:10:38;3.15;49.01
74224;SHT31;62585;49.706;18.216;2024-01-10T13:13:04;3.59;47.43
74224;SHT31;62585;49.706;18.216;2024-01-10T13:15:30;3.91;47.07
74224;SHT31;62585;49.706;18.216;2024-01-10T13:17:56;4.48;45.11
74224;SHT31;62585;49.706;18.216;2024-01-10T13:20:23;5.22;44.80
74224;SHT31;62585;49.706;18.216;2024-01-10T13:22:51;5.23;45.47
74224;SHT31;62585;49.706;18.216;2024-01-10T13:25:17;5.54;44.50
74224;SHT31;62585;49.706;18.216;2024-01-10T13:27:42;5.48;44.14
74224;SHT31;62585;49.706;18.216;2024-01-10T13:30:09;5.56;43.90
74224;SHT31;62585;49.706;18.216;2024-01-10T13:32:37;4.95;45.55
74224;SHT31;62585;49.706;18.216;2024-01-10T13:35:04;4.42;47.04
74224;SHT31;62585;49.706;18.216;2024-01-10T13:37:30;4.47;46.89
74224;SHT31;62585;49.706;18.216;2024-01-10T13:39:57;4.54;46.69
74224;SHT31;62585;49.706;18.216;2024-01-10T13:42:23;5.16;45.47
74224;SHT31;62585;49.706;18.216;2024-01-10T13:44:49;5.28;44.16
74224;SHT31;62585;49.706;18.216;2024-01-10T13:47:17;5.37;44.46
74224;SHT31;62585;49.706;18.216;2024-01-10T13:49:43;5.47;44.58
74224;SHT31;62585;49.706;18.216;2024-01-10T13:52:09;5.45;43.17
74224;SHT31;62585;49.706;18.216;2024-01-10T13:54:35;5.99;43.35
74224;SHT31;62585;49.706;18.216;2024-01-10T13:57:02;5.99;42.63
74224;SHT31;62585;49.706;18.216;2024-01-10T13:59:28;6.26;42.35
74224;SHT31;62585;49.706;18.216;2024-01-10T14:01:55;5.88;42.50
74224;SHT31;62585;49.706;18.216;2024-01-10T14:04:20;5.82;43.07
74224;SHT31;62585;49.706;18.216;2024-01-10T14:06:48;6.00;42.50
74224;SHT31;62585;49.706;18.216;2024-01-10T14:09:14;6.02;42.57
74224;SHT31;62585;49.706;18.216;2024-01-10T14:14:20;6.02;42.24
74224;SHT31;62585;49.706;18.216;2024-01-10T14:16:45;6.03;41.53
74224;SHT31;62585;49.706;18.216;2024-01-10T14:19:11;5.51;40.81
74224;SHT31;62585;49.706;18.216;2024-01-10T14:21:37;5.65;41.82
74224;SHT31;62585;49.706;18.216;2024-01-10T14:24:03;5.79;40.29
74224;SHT31;62585;49.706;18.216;2024-01-10T14:26:29;6.24;39.01
74224;SHT31;62585;49.706;18.216;2024-01-10T14:28:55;6.20;37.51
74224;SHT31;62585;49.706;18.216;2024-01-10T14:31:22;6.16;38.77
74224;SHT31;62585;49.706;18.216;2024-01-10T14:33:48;5.68;38.57
74224;SHT31;62585;49.706;18.216;2024-01-10T14:36:14;5.27;40.28
74224;SHT31;62585;49.706;18.216;2024-01-10T14:38:41;4.85;38.50
74224;SHT31;62585;49.706;18.216;2024-01-10T14:41:07;4.64;39.65
74224;SHT31;62585;49.706;18.216;2024-01-10T14:43:38;4.14;40.18
74224;SHT31;62585;49.706;18.216;2024-01-10T14:46:05;3.59;41.35
74224;SHT31;62585;49.706;18.216;2024-01-10T14:48:33;3.07;42.99
74224;SHT31;62585;49.706;18.216;2024-01-10T14:51:00;2.75;44.90
74224;SHT31;62585;49.706;18.216;2024-01-10T14:53:26;2.66;45.04
74224;SHT31;62585;49.706;18.216;2024-01-10T14:55:52;2.17;46.29
74224;SHT31;62585;49.706;18.216;2024-01-10T14:58:18;2.03;46.92
74224;SHT31;62585;49.706;18.216;2024-01-10T15:00:44;1.77;48.34
74224;SHT31;62585;49.706;18.216;2024-01-10T15:03:10;1.69;49.97
74224;SHT31;62585;49.706;18.216;2024-01-10T15:05:36;1.14;50.44
74224;SHT31;62585;49.706;18.216;2024-01-10T15:08:03;0.79;51.83
74224;SHT31;62585;49.706;18.216;2024-01-10T15:10:33;0.72;52.74
74224;SHT31;62585;49.706;18.216;2024-01-10T15:12:59;0.48;54.12
74224;SHT31;62585;49.706;18.216;2024-01-10T15:15:25;0.39;54.70
74224;SHT31;62585;49.706;18.216;2024-01-10T15:17:51;0.19;56.08
74224;SHT31;62585;49.706;18.216;2024-01-10T15:20:17;-0.02;57.35
74224;SHT31;62585;49.706;18.216;2024-01-10T15:22:43;-0.24;58.56
74224;SHT31;62585;49.706;18.216;2024-01-10T15:25:09;-0.51;59.40
74224;SHT31;62585;49.706;18.216;2024-01-10T15:27:35;-0.60;60.26
74224;SHT31;62585;49.706;18.216;2024-01-10T15:30:02;-0.44;60.29